createdAt,value
2022-10-27T00:02:50.981Z,7.03
2022-10-27T00:05:22.795Z,6.60
2022-10-27T00:07:55.509Z,7.20
2022-10-27T00:10:32.081Z,6.88
2022-10-27T00:13:01.314Z,6.25
2022-10-27T00:15:32.258Z,6.32
2022-10-27T00:18:03.267Z,6.57
2022-10-27T00:20:33.523Z,6.05
2022-10-27T00:23:04.251Z,6.90
2022-10-27T00:25:32.799Z,7.00
2022-10-27T00:28:02.537Z,6.45
2022-10-27T00:30:31.315Z,6.60
2022-10-27T00:33:03.071Z,6.95
2022-10-27T00:35:32.677Z,6.90
2022-10-27T00:38:01.613Z,7.28
2022-10-27T00:40:30.664Z,6.85
2022-10-27T00:42:59.963Z,7.88
2022-10-27T00:45:30.212Z,8.35
2022-10-27T00:47:59.398Z,8.02
2022-10-27T00:50:29.789Z,7.65
2022-10-27T00:53:00.682Z,8.40
2022-10-27T00:55:36.474Z,8.45
2022-10-27T00:58:10.833Z,7.78
2022-10-27T01:00:43.816Z,8.73
2022-10-27T01:03:21.812Z,8.90
2022-10-27T01:05:55.907Z,8.18
2022-10-27T01:08:26.010Z,9.07
2022-10-27T01:10:56.568Z,9.10
2022-10-27T01:13:26.572Z,9.85
2022-10-27T01:16:10.127Z,10.48
2022-10-27T01:18:56.390Z,10.23
2022-10-27T01:22:07.190Z,10.95
2022-10-27T01:25:22.630Z,10.85
2022-10-27T01:28:35.172Z,10.93
2022-10-27T01:31:12.746Z,11.98
2022-10-27T01:33:50.763Z,11.95
2022-10-27T01:36:37.965Z,11.85
2022-10-27T01:39:13.001Z,12.57
2022-10-27T01:41:49.741Z,13.07
2022-10-27T01:44:31.081Z,12.93
2022-10-27T01:47:04.711Z,14.00
2022-10-27T01:49:37.790Z,13.77
2022-10-27T01:52:08.875Z,13.50
2022-10-27T01:54:42.371Z,13.15
2022-10-27T01:57:29.416Z,13.68
2022-10-27T02:00:06.632Z,13.13
2022-10-27T02:02:47.028Z,13.07
2022-10-27T02:05:23.546Z,13.52
2022-10-27T02:08:01.553Z,13.27
2022-10-27T02:10:35.821Z,13.00
2022-10-27T02:13:06.454Z,12.65
2022-10-27T02:15:40.988Z,13.88
2022-10-27T02:18:21.995Z,14.20
2022-10-27T02:21:05.910Z,13.40
2022-10-27T02:23:38.993Z,13.48
2022-10-27T02:26:16.630Z,14.15
2022-10-27T02:28:52.074Z,14.23
2022-10-27T02:31:25.723Z,12.85
2022-10-27T02:34:01.159Z,12.93
2022-10-27T02:36:32.206Z,12.52
2022-10-27T02:39:02.862Z,12.65
2022-10-27T02:41:32.286Z,12.60
2022-10-27T02:44:04.708Z,12.68
2022-10-27T02:46:34.348Z,12.60
2022-10-27T02:49:05.968Z,12.88
2022-10-27T02:51:36.806Z,12.52
2022-10-27T02:54:06.711Z,13.13
2022-10-27T02:56:38.897Z,11.77
2022-10-27T02:59:09.642Z,12.13
2022-10-27T03:01:40.489Z,13.32
2022-10-27T03:04:13.964Z,13.75
2022-10-27T03:06:44.227Z,13.18
2022-10-27T03:09:13.534Z,12.95
2022-10-27T03:11:46.138Z,12.75
2022-10-27T03:14:16.626Z,12.90
2022-10-27T03:16:49.779Z,13.25
2022-10-27T03:19:21.690Z,12.27
2022-10-27T03:21:51.567Z,13.25
2022-10-27T03:24:21.040Z,13.02
2022-10-27T03:26:50.568Z,13.10
2022-10-27T03:29:20.286Z,13.35
2022-10-27T03:31:49.335Z,13.27
2022-10-27T03:34:22.763Z,13.20
2022-10-27T03:36:53.023Z,13.23
2022-10-27T03:39:22.087Z,12.38
2022-10-27T03:41:51.885Z,13.95
2022-10-27T03:44:27.748Z,13.32
2022-10-27T03:46:57.588Z,13.15
2022-10-27T03:49:28.915Z,13.05
2022-10-27T03:51:58.605Z,13.23
2022-10-27T03:54:31.935Z,14.05
2022-10-27T03:57:01.530Z,13.13
2022-10-27T03:59:30.583Z,13.35
2022-10-27T04:02:02.310Z,14.13
2022-10-27T04:04:36.251Z,13.40
2022-10-27T04:07:05.983Z,13.18
2022-10-27T04:09:36.444Z,14.15
2022-10-27T04:12:06.365Z,13.48
2022-10-27T04:14:35.897Z,13.40
2022-10-27T04:17:04.859Z,13.52
2022-10-27T04:19:39.145Z,13.55
2022-10-27T04:22:09.423Z,13.15
2022-10-27T04:24:40.625Z,13.52
2022-10-27T04:29:39.699Z,13.88
2022-10-27T04:32:08.329Z,14.13
2022-10-27T04:34:40.042Z,13.45
2022-10-27T04:37:09.033Z,14.10
2022-10-27T04:39:38.852Z,12.65
2022-10-27T04:42:09.853Z,12.90
2022-10-27T04:44:38.556Z,12.95
2022-10-27T04:47:08.123Z,13.18
2022-10-27T04:49:39.107Z,13.90
2022-10-27T04:52:09.073Z,12.82
2022-10-27T04:54:38.303Z,13.77
2022-10-27T04:57:08.569Z,12.57
2022-10-27T04:59:38.247Z,14.20
2022-10-27T05:02:07.506Z,12.95
2022-10-27T05:04:37.892Z,12.63
2022-10-27T05:07:09.822Z,12.68
2022-10-27T05:09:38.925Z,13.48
2022-10-27T05:12:08.721Z,13.38
2022-10-27T05:14:37.925Z,13.27
2022-10-27T05:17:06.861Z,12.02
2022-10-27T05:19:36.419Z,13.13
2022-10-27T05:22:06.752Z,12.13
2022-10-27T05:24:42.002Z,11.93
2022-10-27T05:27:11.271Z,11.90
2022-10-27T05:29:41.625Z,12.35
2022-10-27T05:32:16.838Z,10.98
2022-10-27T05:34:47.485Z,10.68
2022-10-27T05:37:18.013Z,11.93
2022-10-27T05:39:47.702Z,11.75
2022-10-27T05:42:18.752Z,12.00
2022-10-27T05:44:48.571Z,11.40
2022-10-27T05:47:21.971Z,11.93
2022-10-27T05:49:52.697Z,11.15
2022-10-27T05:52:26.935Z,11.48
2022-10-27T05:54:55.493Z,12.15
2022-10-27T05:57:25.500Z,11.70
2022-10-27T05:59:55.075Z,12.15
2022-10-27T06:02:24.761Z,12.57
2022-10-27T06:04:53.905Z,11.80
2022-10-27T06:07:25.155Z,11.05
2022-10-27T06:09:56.920Z,11.65
2022-10-27T06:12:40.887Z,11.82
2022-10-27T06:15:11.524Z,11.32
2022-10-27T06:17:40.809Z,11.13
2022-10-27T06:20:13.266Z,11.60
2022-10-27T06:22:43.782Z,10.82
2022-10-27T06:25:15.962Z,10.60
2022-10-27T06:27:46.683Z,10.50
2022-10-27T06:30:17.558Z,10.35
2022-10-27T06:32:46.431Z,9.63
2022-10-27T06:35:16.116Z,9.32
2022-10-27T06:37:47.984Z,9.85
2022-10-27T06:40:19.337Z,9.23
2022-10-27T06:43:06.102Z,8.80
2022-10-27T06:45:37.551Z,9.00
2022-10-27T06:48:09.840Z,7.70
2022-10-27T06:50:41.009Z,7.97
2022-10-27T06:53:12.749Z,8.40
2022-10-27T06:55:41.851Z,7.25
2022-10-27T06:58:11.254Z,8.10
2022-10-27T07:00:40.559Z,7.82
2022-10-27T07:05:40.932Z,8.45
2022-10-27T07:08:13.709Z,8.75
2022-10-27T07:10:42.979Z,8.20
2022-10-27T07:13:12.993Z,7.93
2022-10-27T07:15:42.734Z,8.70
2022-10-27T07:18:13.045Z,9.02
2022-10-27T07:20:42.919Z,9.27
2022-10-27T07:23:14.488Z,8.98
2022-10-27T07:28:18.937Z,8.88
2022-10-27T07:30:49.768Z,9.27
2022-10-27T07:33:19.571Z,8.43
2022-10-27T07:35:52.451Z,8.85
2022-10-27T07:38:38.437Z,7.70
2022-10-27T07:41:11.120Z,8.20
2022-10-27T07:43:40.987Z,8.38
2022-10-27T07:46:10.949Z,7.55
2022-10-27T07:48:41.562Z,7.15
2022-10-27T07:51:12.117Z,7.10
2022-10-27T07:53:43.950Z,6.93
2022-10-27T07:56:13.555Z,6.43
2022-10-27T07:58:43.395Z,6.45
2022-10-27T08:01:26.990Z,6.45
2022-10-27T08:03:56.922Z,5.97
2022-10-27T08:06:29.851Z,6.22
2022-10-27T08:09:01.205Z,5.93
2022-10-27T08:11:31.905Z,5.38
2022-10-27T08:14:02.526Z,5.88
2022-10-27T08:16:31.554Z,5.93
2022-10-27T08:19:15.856Z,5.22
2022-10-27T08:21:44.546Z,5.07
2022-10-27T08:35:43.198Z,4.70
2022-10-27T08:41:48.177Z,4.72
2022-10-27T08:45:06.440Z,4.32
2022-10-27T08:47:41.153Z,4.32
2022-10-27T08:50:17.309Z,3.88
2022-10-27T08:53:16.143Z,4.20
2022-10-27T08:58:51.954Z,3.97
2022-10-27T09:14:46.228Z,4.07
2022-10-27T09:17:28.734Z,3.38
2022-10-27T09:20:02.831Z,3.17
2022-10-27T09:25:14.764Z,3.08
2022-10-27T09:27:46.343Z,3.35
2022-10-27T09:30:18.100Z,3.08
2022-10-27T09:32:53.964Z,3.35
2022-10-27T09:35:30.204Z,3.50
2022-10-27T09:38:03.185Z,3.22
2022-10-27T09:40:35.038Z,3.67
2022-10-27T09:43:04.310Z,3.60
2022-10-27T09:45:33.037Z,3.30
2022-10-27T09:48:11.157Z,3.28
2022-10-27T09:50:51.563Z,3.15
2022-10-27T09:53:48.732Z,3.40
2022-10-27T09:56:25.714Z,3.17
2022-10-27T09:59:03.104Z,3.17
2022-10-27T10:01:50.918Z,2.42
2022-10-27T10:04:30.265Z,2.92
2022-10-27T10:10:02.999Z,2.50
2022-10-27T10:12:40.431Z,2.75
2022-10-27T10:15:33.312Z,2.67
2022-10-27T10:18:05.568Z,2.15
2022-10-27T10:23:23.302Z,2.60
2022-10-27T10:25:55.367Z,2.72
2022-10-27T10:28:36.879Z,3.10
2022-10-27T10:31:10.758Z,2.88
2022-10-27T10:33:57.408Z,2.33
2022-10-27T10:36:43.710Z,2.72
2022-10-27T10:39:25.457Z,2.20
2022-10-27T10:42:20.205Z,2.42
2022-10-27T10:45:07.985Z,2.50
2022-10-27T10:47:40.392Z,2.78
2022-10-27T10:50:14.927Z,2.13
2022-10-27T10:52:52.627Z,2.40
2022-10-27T10:55:29.704Z,2.63
2022-10-27T10:57:59.999Z,2.20
2022-10-27T11:00:32.831Z,2.35
2022-10-27T11:03:05.775Z,2.20
2022-10-27T11:05:38.026Z,2.00
2022-10-27T11:08:21.782Z,2.40
2022-10-27T11:10:55.402Z,2.40
2022-10-27T11:13:52.304Z,2.13
2022-10-27T11:16:24.974Z,2.42
2022-10-27T11:18:58.071Z,2.75
2022-10-27T11:21:36.364Z,2.17
2022-10-27T11:24:16.835Z,2.13
2022-10-27T11:27:00.224Z,2.33
2022-10-27T11:29:44.347Z,2.28
2022-10-27T11:32:22.016Z,1.95
2022-10-27T11:35:08.405Z,2.00
2022-10-27T11:37:51.437Z,2.00
2022-10-27T11:40:34.056Z,2.20
2022-10-27T11:43:15.830Z,2.40
2022-10-27T11:45:55.179Z,1.90
2022-10-27T11:48:32.788Z,1.80
2022-10-27T11:51:08.644Z,2.00
2022-10-27T11:53:40.289Z,2.10
2022-10-27T11:56:44.470Z,1.90
2022-10-27T11:59:25.342Z,1.83
2022-10-27T12:02:22.545Z,2.08
2022-10-27T12:04:57.944Z,2.13
2022-10-27T12:07:45.836Z,1.95
2022-10-27T12:10:30.433Z,2.03
2022-10-27T12:13:09.762Z,2.10
2022-10-27T12:15:47.366Z,2.22
2022-10-27T12:18:28.338Z,1.90
2022-10-27T12:21:04.308Z,2.10
2022-10-27T12:23:39.469Z,2.33
2022-10-27T12:26:16.170Z,2.15
2022-10-27T12:28:48.088Z,2.20
2022-10-27T12:31:22.382Z,2.17
2022-10-27T12:36:35.244Z,2.25
2022-10-27T12:39:16.153Z,2.10
2022-10-27T12:41:54.507Z,2.28
2022-10-27T12:44:37.951Z,2.63
2022-10-27T12:47:27.615Z,2.42
2022-10-27T12:50:13.141Z,2.08
2022-10-27T12:52:51.092Z,2.53
2022-10-27T12:55:46.868Z,2.20
2022-10-27T12:58:26.518Z,2.38
2022-10-27T13:01:10.401Z,2.35
2022-10-27T13:04:08.807Z,2.22
2022-10-27T13:07:03.044Z,2.33
2022-10-27T13:13:24.922Z,2.50
2022-10-27T13:16:46.106Z,2.53
2022-10-27T13:19:28.006Z,2.35
2022-10-27T13:22:24.383Z,2.63
2022-10-27T13:25:04.646Z,2.30
2022-10-27T13:27:44.239Z,2.30
2022-10-27T13:33:37.836Z,3.28
2022-10-27T13:36:24.330Z,2.22
2022-10-27T13:39:46.211Z,2.53
2022-10-27T13:52:15.841Z,2.40
2022-10-27T13:55:08.390Z,2.90
2022-10-27T13:58:51.443Z,2.15
2022-10-27T14:01:43.412Z,2.25
2022-10-27T14:08:22.655Z,2.22
2022-10-27T14:10:52.419Z,2.45
2022-10-27T14:13:28.480Z,2.60
2022-10-27T14:16:17.963Z,2.20
2022-10-27T14:18:49.036Z,2.50
2022-10-27T14:21:25.067Z,2.53
2022-10-27T14:23:56.716Z,2.92
2022-10-27T14:26:32.946Z,2.45
2022-10-27T14:29:07.749Z,2.50
2022-10-27T14:31:38.345Z,2.58
2022-10-27T14:34:22.649Z,2.53
2022-10-27T14:36:54.782Z,2.47
2022-10-27T14:39:33.613Z,2.35
2022-10-27T14:42:06.567Z,2.58
2022-10-27T14:44:39.621Z,2.30
2022-10-27T14:47:14.689Z,2.15
2022-10-27T14:49:50.139Z,2.03
2022-10-27T14:52:25.221Z,2.08
2022-10-27T14:54:58.502Z,2.55
2022-10-27T14:57:35.187Z,2.13
2022-10-27T15:00:22.841Z,2.05
2022-10-27T15:02:52.634Z,2.35
2022-10-27T15:05:26.974Z,2.75
2022-10-27T15:07:59.516Z,2.53
2022-10-27T15:10:37.736Z,2.05
2022-10-27T15:13:09.162Z,2.25
2022-10-27T15:15:43.373Z,2.10
2022-10-27T15:18:23.885Z,1.90
2022-10-27T15:20:53.880Z,2.38
2022-10-27T15:23:23.886Z,2.20
2022-10-27T15:25:58.682Z,2.15
2022-10-27T15:28:31.927Z,2.10
2022-10-27T15:31:01.250Z,2.40
2022-10-27T15:33:41.201Z,2.00
2022-10-27T15:36:27.761Z,1.95
2022-10-27T15:38:56.485Z,2.50
2022-10-27T15:41:35.360Z,2.38
2022-10-27T15:44:19.667Z,2.42
2022-10-27T15:46:48.933Z,2.75
2022-10-27T15:49:31.035Z,3.17
2022-10-27T15:52:04.406Z,2.60
2022-10-27T15:54:36.527Z,2.38
2022-10-27T15:57:27.548Z,2.67
2022-10-27T16:00:17.179Z,2.72
2022-10-27T16:02:48.659Z,2.40
2022-10-27T16:05:44.332Z,3.72
2022-10-27T16:08:42.564Z,3.17
2022-10-27T16:11:15.077Z,2.55
2022-10-27T16:13:49.562Z,3.50
2022-10-27T16:16:19.120Z,3.93
2022-10-27T16:18:48.568Z,2.80
2022-10-27T16:21:30.045Z,2.60
2022-10-27T16:24:03.246Z,3.40
2022-10-27T16:26:32.887Z,3.22
2022-10-27T16:29:03.266Z,2.85
2022-10-27T16:31:32.438Z,3.72
2022-10-27T16:34:01.051Z,4.28
2022-10-27T16:36:29.853Z,3.05
2022-10-27T16:38:58.222Z,3.33
2022-10-27T16:41:30.375Z,4.40
2022-10-27T16:43:59.214Z,3.63
2022-10-27T16:46:29.955Z,3.53
2022-10-27T16:49:05.036Z,3.65
2022-10-27T16:51:34.996Z,3.85
2022-10-27T16:54:09.847Z,3.88
2022-10-27T16:56:53.617Z,3.85
2022-10-27T16:59:26.220Z,3.40
2022-10-27T17:01:59.368Z,3.97
2022-10-27T17:04:33.594Z,4.00
2022-10-27T17:18:44.188Z,4.15
2022-10-27T17:21:16.394Z,4.50
2022-10-27T17:23:45.866Z,4.15
2022-10-27T17:26:18.157Z,3.95
2022-10-27T17:28:52.489Z,4.28
2022-10-27T17:31:23.679Z,4.20
2022-10-27T17:34:02.314Z,4.43
2022-10-27T17:36:33.670Z,3.95
2022-10-27T17:42:00.324Z,4.53
2022-10-27T17:44:33.465Z,4.70
2022-10-27T17:47:11.047Z,4.47
2022-10-27T17:49:48.545Z,5.32
2022-10-27T17:52:29.278Z,4.50
2022-10-27T17:58:08.364Z,4.85
2022-10-27T18:00:43.059Z,4.63
2022-10-27T18:03:13.403Z,4.50
2022-10-27T18:05:46.784Z,5.10
2022-10-27T18:08:24.353Z,4.80
2022-10-27T18:10:56.915Z,5.35
2022-10-27T18:13:28.178Z,5.05
2022-10-27T18:16:01.981Z,5.20
2022-10-27T18:18:33.647Z,4.68
2022-10-27T18:21:09.008Z,5.82
2022-10-27T18:23:44.437Z,5.32
2022-10-27T18:26:15.352Z,5.35
2022-10-27T18:28:49.890Z,5.43
2022-10-27T18:31:23.776Z,5.00
2022-10-27T18:33:54.968Z,5.65
2022-10-27T18:36:25.922Z,5.03
2022-10-27T18:38:57.306Z,5.45
2022-10-27T18:41:33.211Z,5.20
2022-10-27T18:44:02.464Z,5.55
2022-10-27T18:46:34.939Z,5.28
2022-10-27T18:49:04.426Z,5.63
2022-10-27T18:51:51.882Z,6.97
2022-10-27T18:54:36.170Z,8.10
2022-10-27T18:57:05.410Z,9.10
2022-10-27T18:59:36.818Z,8.07
2022-10-27T19:02:07.784Z,10.20
2022-10-27T19:04:38.890Z,6.97
2022-10-27T19:07:07.382Z,6.80
2022-10-27T19:09:38.279Z,7.35
2022-10-27T19:12:09.006Z,8.18
2022-10-27T19:14:39.499Z,8.50
2022-10-27T19:17:09.525Z,8.57
2022-10-27T19:19:42.138Z,7.93
2022-10-27T19:22:18.774Z,8.13
2022-10-27T19:24:51.939Z,8.73
2022-10-27T19:27:23.258Z,7.85
2022-10-27T19:29:53.907Z,8.73
2022-10-27T19:32:26.962Z,7.82
2022-10-27T19:37:54.282Z,7.18
2022-10-27T19:40:28.846Z,7.47
2022-10-27T19:42:59.804Z,7.80
2022-10-27T19:45:30.103Z,8.07
2022-10-27T19:48:02.950Z,8.30
2022-10-27T19:50:37.410Z,7.13
2022-10-27T19:53:06.483Z,7.78
2022-10-27T19:55:36.903Z,8.27
2022-10-27T19:58:06.300Z,8.38
2022-10-27T20:00:49.445Z,9.30
2022-10-27T20:03:23.259Z,8.27
2022-10-27T20:05:56.314Z,8.65
2022-10-27T20:08:27.402Z,8.00
2022-10-27T20:11:07.324Z,8.38
2022-10-27T20:13:38.121Z,8.27
2022-10-27T20:16:09.009Z,7.88
2022-10-27T20:18:38.688Z,8.07
2022-10-27T20:21:07.725Z,7.25
2022-10-27T20:23:38.027Z,6.90
2022-10-27T20:26:28.520Z,7.63
2022-10-27T20:28:57.742Z,7.28
2022-10-27T20:31:26.644Z,6.88
2022-10-27T20:33:55.839Z,7.03
2022-10-27T20:36:25.460Z,6.93
2022-10-27T20:38:55.410Z,6.95
2022-10-27T20:41:29.823Z,6.97
2022-10-27T20:44:01.163Z,6.65
2022-10-27T20:46:33.579Z,6.93
2022-10-27T20:49:04.290Z,6.97
2022-10-27T20:51:34.903Z,6.35
2022-10-27T20:54:04.749Z,6.40
2022-10-27T20:56:37.260Z,6.47
2022-10-27T20:59:07.781Z,6.45
2022-10-27T21:01:39.484Z,7.38
2022-10-27T21:04:12.159Z,6.80
2022-10-27T21:06:44.856Z,6.82
2022-10-27T21:09:15.793Z,7.05
2022-10-27T21:11:47.936Z,7.18
2022-10-27T21:14:20.381Z,6.70
2022-10-27T21:16:52.020Z,7.43
2022-10-27T21:19:21.595Z,8.60
2022-10-27T21:21:50.457Z,7.05
2022-10-27T21:24:22.731Z,7.00
2022-10-27T21:26:54.211Z,7.65
2022-10-27T21:29:23.293Z,7.28
2022-10-27T21:31:54.120Z,7.20
2022-10-27T21:34:27.773Z,6.80
2022-10-27T21:36:56.561Z,7.68
2022-10-27T21:39:25.077Z,7.03
2022-10-27T21:41:55.934Z,7.35
2022-10-27T21:44:27.280Z,7.03
2022-10-27T21:46:57.855Z,8.18
2022-10-27T21:49:26.484Z,7.60
2022-10-27T21:51:54.941Z,8.43
2022-10-27T21:54:26.324Z,8.23
2022-10-27T21:56:59.175Z,8.02
2022-10-27T21:59:27.673Z,8.32
2022-10-27T22:01:56.295Z,7.88
2022-10-27T22:04:27.165Z,8.18
2022-10-27T22:06:58.857Z,8.73
2022-10-27T22:09:29.601Z,8.18
2022-10-27T22:11:59.987Z,8.65
2022-10-27T22:14:34.034Z,8.23
2022-10-27T22:17:04.902Z,8.20
2022-10-27T22:19:34.486Z,8.32
2022-10-27T22:24:42.394Z,8.88
2022-10-27T22:27:15.631Z,7.95
2022-10-27T22:29:49.055Z,8.45
2022-10-27T22:32:17.864Z,8.15
2022-10-27T22:34:48.275Z,9.18
2022-10-27T22:37:19.228Z,8.73
2022-10-27T22:39:49.449Z,8.05
2022-10-27T22:42:20.790Z,8.88
2022-10-27T22:44:49.826Z,11.20
2022-10-27T22:47:18.756Z,9.15
2022-10-27T22:49:47.888Z,8.73
2022-10-27T22:52:16.240Z,8.32
2022-10-27T22:54:45.030Z,8.68
2022-10-27T22:57:13.640Z,9.50
2022-10-27T22:59:44.126Z,9.07
2022-10-27T23:02:13.362Z,9.10
2022-10-27T23:04:46.514Z,9.57
2022-10-27T23:07:17.271Z,10.23
2022-10-27T23:09:46.151Z,9.93
2022-10-27T23:12:14.621Z,10.18
2022-10-27T23:14:48.860Z,10.55
2022-10-27T23:17:22.635Z,9.48
2022-10-27T23:19:53.165Z,10.30
2022-10-27T23:22:22.581Z,9.63
2022-10-27T23:24:51.387Z,10.55
2022-10-27T23:27:20.369Z,10.00
2022-10-27T23:29:51.278Z,9.52
2022-10-27T23:32:20.801Z,10.18
2022-10-27T23:34:49.896Z,10.35
2022-10-27T23:37:20.144Z,10.82
2022-10-27T23:39:50.833Z,10.27
2022-10-27T23:42:19.642Z,10.27
2022-10-27T23:44:51.378Z,10.55
2022-10-27T23:47:20.072Z,11.00
2022-10-27T23:49:50.238Z,11.65
2022-10-27T23:52:19.191Z,11.35
2022-10-27T23:54:47.753Z,11.57
2022-10-27T23:57:17.382Z,11.65
2022-10-27T23:59:46.646Z,12.13
